createdAt,value
2018-05-23T00:00:04.701Z,4.60
2018-05-23T00:02:30.970Z,4.10
2018-05-23T00:04:57.210Z,3.83
2018-05-23T00:07:23.427Z,4.57
2018-05-23T00:09:49.687Z,3.97
2018-05-23T00:12:15.942Z,3.87
2018-05-23T00:14:42.834Z,5.20
2018-05-23T00:17:09.102Z,4.17
2018-05-23T00:19:35.331Z,4.30
2018-05-23T00:22:01.627Z,4.67
2018-05-23T00:24:27.982Z,4.00
2018-05-23T00:26:54.215Z,4.00
2018-05-23T00:29:20.465Z,3.90
2018-05-23T00:31:46.741Z,4.30
2018-05-23T00:34:12.962Z,4.50
2018-05-23T00:36:39.216Z,4.23
2018-05-23T00:39:05.527Z,4.00
2018-05-23T00:41:31.745Z,4.00
2018-05-23T00:43:57.998Z,3.80
2018-05-23T00:46:24.255Z,4.00
2018-05-23T00:48:50.483Z,4.13
2018-05-23T00:51:16.767Z,4.23
2018-05-23T00:53:43.043Z,3.87
2018-05-23T00:56:09.300Z,4.27
2018-05-23T00:58:35.554Z,4.00
2018-05-23T01:01:01.807Z,3.83
2018-05-23T01:03:28.034Z,3.90
2018-05-23T01:05:54.267Z,4.60
2018-05-23T01:08:20.590Z,3.90
2018-05-23T01:10:46.894Z,3.90
2018-05-23T01:13:13.118Z,3.90
2018-05-23T01:15:39.379Z,4.40
2018-05-23T01:18:05.619Z,4.20
2018-05-23T01:20:31.886Z,4.53
2018-05-23T01:22:58.836Z,4.30
2018-05-23T01:25:25.131Z,4.57
2018-05-23T01:27:51.378Z,4.67
2018-05-23T01:30:17.646Z,4.23
2018-05-23T01:32:43.868Z,4.77
2018-05-23T01:35:10.199Z,4.53
2018-05-23T01:37:36.422Z,5.03
2018-05-23T01:40:02.699Z,4.17
2018-05-23T01:42:28.978Z,5.70
2018-05-23T01:44:55.246Z,5.00
2018-05-23T01:47:21.515Z,5.30
2018-05-23T01:49:47.767Z,5.40
2018-05-23T01:52:14.026Z,4.47
2018-05-23T01:54:40.303Z,4.87
2018-05-23T01:57:06.582Z,4.07
2018-05-23T01:59:32.888Z,4.17
2018-05-23T02:01:59.126Z,4.77
2018-05-23T02:04:25.398Z,4.70
2018-05-23T02:06:51.645Z,5.40
2018-05-23T02:09:17.974Z,4.83
2018-05-23T02:11:44.223Z,4.90
2018-05-23T02:14:10.550Z,4.37
2018-05-23T02:16:36.785Z,4.50
2018-05-23T02:19:03.074Z,5.60
2018-05-23T02:21:29.314Z,5.13
2018-05-23T02:23:55.554Z,4.63
2018-05-23T02:26:21.855Z,4.63
2018-05-23T02:28:48.106Z,4.77
2018-05-23T02:31:14.378Z,4.20
2018-05-23T02:33:40.630Z,4.43
2018-05-23T02:36:06.901Z,5.20
2018-05-23T02:38:33.139Z,4.83
2018-05-23T02:40:59.414Z,4.50
2018-05-23T02:43:25.683Z,4.83
2018-05-23T02:45:51.915Z,4.37
2018-05-23T02:48:18.187Z,4.63
2018-05-23T02:50:44.480Z,4.43
2018-05-23T02:53:10.751Z,4.83
2018-05-23T02:55:37.027Z,4.93
2018-05-23T02:58:03.328Z,5.43
2018-05-23T03:00:29.550Z,4.83
2018-05-23T03:02:55.882Z,4.67
2018-05-23T03:05:22.145Z,5.10
2018-05-23T03:07:48.385Z,5.00
2018-05-23T03:10:14.638Z,4.97
2018-05-23T03:12:40.954Z,5.03
2018-05-23T03:15:07.215Z,5.40
2018-05-23T03:17:33.471Z,4.97
2018-05-23T03:19:59.755Z,5.00
2018-05-23T03:22:26.072Z,4.50
2018-05-23T03:24:52.346Z,4.23
2018-05-23T03:27:18.600Z,4.13
2018-05-23T03:29:44.855Z,4.53
2018-05-23T03:32:11.110Z,4.80
2018-05-23T03:34:37.415Z,5.03
2018-05-23T03:37:03.713Z,4.90
2018-05-23T03:39:29.975Z,5.47
2018-05-23T03:41:56.224Z,4.90
2018-05-23T03:44:22.466Z,4.70
2018-05-23T03:46:48.739Z,5.07
2018-05-23T03:49:14.990Z,5.43
2018-05-23T03:51:41.238Z,4.90
2018-05-23T03:54:07.491Z,5.13
2018-05-23T03:56:33.750Z,4.87
2018-05-23T03:59:00.038Z,5.20
2018-05-23T04:01:38.492Z,5.23
2018-05-23T04:04:16.926Z,5.33
2018-05-23T04:06:55.394Z,5.07
2018-05-23T04:09:21.638Z,5.37
2018-05-23T04:11:47.858Z,5.03
2018-05-23T04:14:14.111Z,5.90
2018-05-23T04:16:40.359Z,5.00
2018-05-23T04:19:06.623Z,4.83
2018-05-23T04:21:34.048Z,5.80
2018-05-23T04:24:00.272Z,5.30
2018-05-23T04:26:26.522Z,4.20
2018-05-23T04:28:52.772Z,4.97
2018-05-23T04:31:19.038Z,5.03
2018-05-23T04:33:45.274Z,5.73
2018-05-23T04:36:11.535Z,5.90
2018-05-23T04:38:37.750Z,5.27
2018-05-23T04:41:04.083Z,5.57
2018-05-23T04:43:30.299Z,5.63
2018-05-23T04:45:56.525Z,5.83
2018-05-23T04:48:22.779Z,6.30
2018-05-23T04:50:49.035Z,6.30
2018-05-23T04:53:15.311Z,5.83
2018-05-23T04:55:41.566Z,5.90
2018-05-23T04:58:07.830Z,5.90
2018-05-23T05:00:34.104Z,6.30
2018-05-23T05:03:00.335Z,6.37
2018-05-23T05:05:26.579Z,6.47
2018-05-23T05:07:52.814Z,5.73
2018-05-23T05:10:19.166Z,6.40
2018-05-23T05:12:45.446Z,6.30
2018-05-23T05:15:11.728Z,6.73
2018-05-23T05:17:37.954Z,6.30
2018-05-23T05:20:04.270Z,6.20
2018-05-23T05:22:30.553Z,6.33
2018-05-23T05:24:56.893Z,6.03
2018-05-23T05:27:23.139Z,6.33
2018-05-23T05:29:49.388Z,6.67
2018-05-23T05:32:15.690Z,6.07
2018-05-23T05:34:42.007Z,5.90
2018-05-23T05:37:08.254Z,6.03
2018-05-23T05:39:34.510Z,7.07
2018-05-23T05:42:00.804Z,6.10
2018-05-23T05:44:27.034Z,6.30
2018-05-23T05:46:53.374Z,8.50
2018-05-23T05:49:19.558Z,16.53
2018-05-23T05:51:45.807Z,7.07
2018-05-23T05:54:12.078Z,5.93
2018-05-23T05:56:38.302Z,5.83
2018-05-23T05:59:04.552Z,7.07
2018-05-23T06:01:30.786Z,6.87
2018-05-23T06:03:57.050Z,6.30
2018-05-23T06:06:23.304Z,6.07
2018-05-23T06:08:49.563Z,6.70
2018-05-23T06:11:15.859Z,6.53
2018-05-23T06:13:42.124Z,6.90
2018-05-23T06:16:08.379Z,6.70
2018-05-23T06:18:34.631Z,7.00
2018-05-23T06:21:00.953Z,6.43
2018-05-23T06:23:27.171Z,7.13
2018-05-23T06:25:53.440Z,7.07
2018-05-23T06:28:19.697Z,6.57
2018-05-23T06:30:45.938Z,11.13
2018-05-23T06:33:12.227Z,12.87
2018-05-23T06:35:38.475Z,6.60
2018-05-23T06:38:04.755Z,6.27
2018-05-23T06:40:31.059Z,7.20
2018-05-23T06:42:57.314Z,6.90
2018-05-23T06:45:23.543Z,7.10
2018-05-23T06:47:49.842Z,6.83
2018-05-23T06:50:16.092Z,11.20
2018-05-23T06:52:42.350Z,6.87
2018-05-23T06:55:08.639Z,6.43
2018-05-23T06:57:34.887Z,6.23
2018-05-23T07:00:01.194Z,6.30
2018-05-23T07:02:27.454Z,6.60
2018-05-23T07:04:53.798Z,5.83
2018-05-23T07:07:20.139Z,8.73
2018-05-23T07:09:46.411Z,6.60
2018-05-23T07:12:12.686Z,7.03
2018-05-23T07:14:38.974Z,6.90
2018-05-23T07:17:05.225Z,6.67
2018-05-23T07:19:31.461Z,6.63
2018-05-23T07:21:57.806Z,6.00
2018-05-23T07:24:24.086Z,6.40
2018-05-23T07:26:50.370Z,6.68
2018-05-23T07:29:16.676Z,6.47
2018-05-23T07:31:43.013Z,6.82
2018-05-23T07:34:09.222Z,6.53
2018-05-23T07:36:35.467Z,6.60
2018-05-23T07:39:01.815Z,6.65
2018-05-23T07:41:28.059Z,6.82
2018-05-23T07:43:54.368Z,9.77
2018-05-23T07:46:20.645Z,9.38
2018-05-23T07:48:46.926Z,7.05
2018-05-23T07:51:13.154Z,6.15
2018-05-23T07:53:39.414Z,7.30
2018-05-23T07:56:05.686Z,6.55
2018-05-23T07:58:31.919Z,6.50
2018-05-23T08:00:58.174Z,6.90
2018-05-23T08:03:24.407Z,7.07
2018-05-23T08:05:50.690Z,6.55
2018-05-23T08:08:16.939Z,6.25
2018-05-23T08:10:43.204Z,6.93
2018-05-23T08:13:09.425Z,6.60
2018-05-23T08:15:35.759Z,6.47
2018-05-23T08:18:02.047Z,6.43
2018-05-23T08:20:28.414Z,6.32
2018-05-23T08:22:54.721Z,7.12
2018-05-23T08:25:21.107Z,7.10
2018-05-23T08:27:47.406Z,6.35
2018-05-23T08:30:13.697Z,6.87
2018-05-23T08:32:39.954Z,6.75
2018-05-23T08:35:06.174Z,6.55
2018-05-23T08:37:32.670Z,6.32
2018-05-23T08:39:58.914Z,6.25
2018-05-23T08:42:25.150Z,6.70
2018-05-23T08:44:51.438Z,6.12
2018-05-23T08:47:17.726Z,6.80
2018-05-23T08:49:44.090Z,6.03
2018-05-23T08:52:10.403Z,6.50
2018-05-23T08:54:36.703Z,6.47
2018-05-23T08:57:02.981Z,6.07
2018-05-23T08:59:29.285Z,6.43
2018-05-23T09:01:55.550Z,6.43
2018-05-23T09:04:21.820Z,6.65
2018-05-23T09:06:48.131Z,6.60
2018-05-23T09:09:14.379Z,7.07
2018-05-23T09:11:40.727Z,6.80
2018-05-23T09:14:07.002Z,6.37
2018-05-23T09:16:33.291Z,6.45
2018-05-23T09:18:59.591Z,6.15
2018-05-23T09:21:25.869Z,6.93
2018-05-23T09:23:52.134Z,6.43
2018-05-23T09:26:18.391Z,6.70
2018-05-23T09:28:44.674Z,7.60
2018-05-23T09:31:10.942Z,7.30
2018-05-23T09:33:37.194Z,6.72
2018-05-23T09:36:03.475Z,6.35
2018-05-23T09:38:29.746Z,6.70
2018-05-23T09:40:55.986Z,6.50
2018-05-23T09:43:22.277Z,6.50
2018-05-23T09:45:48.512Z,6.57
2018-05-23T09:48:14.810Z,6.22
2018-05-23T09:50:41.085Z,6.78
2018-05-23T09:53:07.330Z,6.35
2018-05-23T09:55:33.578Z,6.87
2018-05-23T09:57:59.810Z,6.32
2018-05-23T10:00:26.079Z,6.60
2018-05-23T10:02:52.318Z,7.30
2018-05-23T10:05:18.633Z,7.00
2018-05-23T10:07:44.894Z,7.82
2018-05-23T10:10:11.151Z,7.05
2018-05-23T10:12:37.415Z,7.22
2018-05-23T10:15:03.679Z,6.80
2018-05-23T10:17:29.930Z,7.87
2018-05-23T10:19:56.215Z,7.37
2018-05-23T10:22:22.480Z,7.47
2018-05-23T10:24:48.719Z,6.57
2018-05-23T10:27:15.030Z,7.05
2018-05-23T10:29:41.271Z,7.78
2018-05-23T10:32:07.507Z,8.13
2018-05-23T10:34:33.763Z,7.60
2018-05-23T10:37:00.040Z,7.78
2018-05-23T10:39:26.308Z,7.60
2018-05-23T10:41:52.541Z,8.32
2018-05-23T10:44:18.818Z,11.65
2018-05-23T10:46:45.038Z,11.02
2018-05-23T10:49:11.306Z,7.82
2018-05-23T10:51:37.637Z,8.57
2018-05-23T10:54:03.814Z,8.35
2018-05-23T10:56:30.071Z,8.15
2018-05-23T10:58:56.338Z,8.75
2018-05-23T11:01:22.620Z,8.63
2018-05-23T11:03:48.898Z,7.85
2018-05-23T11:06:15.167Z,8.15
2018-05-23T11:08:41.439Z,8.27
2018-05-23T11:11:07.727Z,8.40
2018-05-23T11:13:33.960Z,8.27
2018-05-23T11:16:00.189Z,9.20
2018-05-23T11:18:26.453Z,8.52
2018-05-23T11:20:52.726Z,8.85
2018-05-23T11:23:18.991Z,9.23
2018-05-23T11:25:45.224Z,8.23
2018-05-23T11:28:11.465Z,9.60
2018-05-23T11:30:37.743Z,9.10
2018-05-23T11:33:03.976Z,9.30
2018-05-23T11:35:30.239Z,18.70
2018-05-23T11:37:56.478Z,7.50
2018-05-23T11:40:22.778Z,7.83
2018-05-23T11:42:49.110Z,8.97
2018-05-23T11:45:15.371Z,8.77
2018-05-23T11:47:41.650Z,9.63
2018-05-23T11:50:07.913Z,15.10
2018-05-23T11:52:34.201Z,13.87
2018-05-23T11:55:00.551Z,10.57
2018-05-23T11:57:26.899Z,10.13
2018-05-23T11:59:53.206Z,9.70
2018-05-23T12:02:19.455Z,9.73
2018-05-23T12:04:45.762Z,10.50
2018-05-23T12:07:12.062Z,11.43
2018-05-23T12:09:38.315Z,9.53
2018-05-23T12:12:04.590Z,10.17
2018-05-23T12:14:30.850Z,13.73
2018-05-23T12:16:57.102Z,6.77
2018-05-23T12:19:23.371Z,7.93
2018-05-23T12:21:49.610Z,6.40
2018-05-23T12:24:15.890Z,6.40
2018-05-23T12:26:42.186Z,6.10
2018-05-23T12:29:08.467Z,5.73
2018-05-23T12:31:34.696Z,5.80
2018-05-23T12:34:00.982Z,5.60
2018-05-23T12:36:27.211Z,4.90
2018-05-23T12:38:53.454Z,5.50
2018-05-23T12:41:19.710Z,4.83
2018-05-23T12:43:46.011Z,4.43
2018-05-23T12:46:12.274Z,5.33
2018-05-23T12:48:38.499Z,5.10
2018-05-23T12:51:04.831Z,4.80
2018-05-23T12:53:31.139Z,4.63
2018-05-23T12:55:57.435Z,5.00
2018-05-23T12:58:23.663Z,4.73
2018-05-23T13:00:49.891Z,5.03
2018-05-23T13:03:16.166Z,4.90
2018-05-23T13:05:42.420Z,4.90
2018-05-23T13:08:08.674Z,5.13
2018-05-23T13:10:34.957Z,5.00
2018-05-23T13:13:01.226Z,5.50
2018-05-23T13:15:27.459Z,4.50
2018-05-23T13:17:53.794Z,5.30
2018-05-23T13:20:20.014Z,5.10
2018-05-23T13:22:46.247Z,5.30
2018-05-23T13:25:12.515Z,5.30
2018-05-23T13:27:38.746Z,5.20
2018-05-23T13:30:05.054Z,4.70
2018-05-23T13:32:31.304Z,5.00
2018-05-23T13:34:57.599Z,5.33
2018-05-23T13:37:23.858Z,5.10
2018-05-23T13:39:50.106Z,5.30
2018-05-23T13:42:16.367Z,5.70
2018-05-23T13:44:42.599Z,5.03
2018-05-23T13:47:08.881Z,5.13
2018-05-23T13:49:35.122Z,5.53
2018-05-23T13:52:01.419Z,5.33
2018-05-23T13:54:27.683Z,5.83
2018-05-23T13:56:53.959Z,5.33
2018-05-23T13:59:20.291Z,5.60
2018-05-23T14:01:46.615Z,5.20
2018-05-23T14:04:12.838Z,5.00
2018-05-23T14:06:39.082Z,4.97
2018-05-23T14:09:05.395Z,5.17
2018-05-23T14:11:31.617Z,5.67
2018-05-23T14:13:57.883Z,5.47
2018-05-23T14:16:24.122Z,5.93
2018-05-23T14:18:50.402Z,5.47
2018-05-23T14:21:16.648Z,5.47
2018-05-23T14:23:42.907Z,6.03
2018-05-23T14:26:09.134Z,6.43
2018-05-23T14:28:35.391Z,7.07
2018-05-23T14:31:01.639Z,6.40
2018-05-23T14:33:27.918Z,6.37
2018-05-23T14:35:54.286Z,6.20
2018-05-23T14:38:20.484Z,6.53
2018-05-23T14:40:46.766Z,6.43
2018-05-23T14:43:13.012Z,5.70
2018-05-23T14:45:39.286Z,6.77
2018-05-23T14:48:05.574Z,6.20
2018-05-23T14:50:31.814Z,7.00
2018-05-23T14:52:58.070Z,6.03
2018-05-23T14:55:24.346Z,5.50
2018-05-23T14:57:50.623Z,6.00
2018-05-23T15:00:16.871Z,6.13
2018-05-23T15:02:43.130Z,6.30
2018-05-23T15:05:09.399Z,6.67
2018-05-23T15:07:35.634Z,6.20
2018-05-23T15:10:01.949Z,6.83
2018-05-23T15:12:28.186Z,7.00
2018-05-23T15:14:54.539Z,7.00
2018-05-23T15:17:20.794Z,6.47
2018-05-23T15:19:47.171Z,6.70
2018-05-23T15:22:16.234Z,7.57
2018-05-23T15:24:42.499Z,7.07
2018-05-23T15:27:08.758Z,6.97
2018-05-23T15:29:35.028Z,6.90
2018-05-23T15:32:01.299Z,7.33
2018-05-23T15:34:27.566Z,7.90
2018-05-23T15:36:53.862Z,7.70
2018-05-23T15:39:20.183Z,8.00
2018-05-23T15:41:46.539Z,8.90
2018-05-23T15:44:12.718Z,8.87
2018-05-23T15:46:38.997Z,8.60
2018-05-23T15:49:05.283Z,8.30
2018-05-23T15:51:31.543Z,8.43
2018-05-23T15:53:57.813Z,9.63
2018-05-23T15:56:24.042Z,8.50
2018-05-23T15:58:50.313Z,8.70
2018-05-23T16:01:16.575Z,8.17
2018-05-23T16:03:42.834Z,7.53
2018-05-23T16:06:09.078Z,7.23
2018-05-23T16:08:35.358Z,7.60
2018-05-23T16:11:01.624Z,7.73
2018-05-23T16:13:27.865Z,6.80
2018-05-23T16:15:54.139Z,7.83
2018-05-23T16:18:20.380Z,7.53
2018-05-23T16:20:46.690Z,7.20
2018-05-23T16:23:13.011Z,8.13
2018-05-23T16:25:39.289Z,8.87
2018-05-23T16:28:05.528Z,8.50
2018-05-23T16:30:31.777Z,8.50
2018-05-23T16:32:58.050Z,8.23
2018-05-23T16:35:24.298Z,9.53
2018-05-23T16:37:50.593Z,9.40
2018-05-23T16:40:16.846Z,8.43
2018-05-23T16:42:43.118Z,8.90
2018-05-23T16:45:09.359Z,9.90
2018-05-23T16:47:35.646Z,9.13
2018-05-23T16:50:01.935Z,9.73
2018-05-23T16:52:28.179Z,10.90
2018-05-23T16:54:54.469Z,10.60
2018-05-23T16:57:20.701Z,10.80
2018-05-23T16:59:46.980Z,10.13
2018-05-23T17:02:13.213Z,11.43
2018-05-23T17:04:39.510Z,10.67
2018-05-23T17:07:05.771Z,11.47
2018-05-23T17:09:32.047Z,12.23
2018-05-23T17:11:58.311Z,12.33
2018-05-23T17:14:24.552Z,12.17
2018-05-23T17:16:50.819Z,12.70
2018-05-23T17:19:17.051Z,12.13
2018-05-23T17:21:43.303Z,12.87
2018-05-23T17:24:09.533Z,12.53
2018-05-23T17:26:35.798Z,11.60
2018-05-23T17:29:02.083Z,12.30
2018-05-23T17:31:28.338Z,12.17
2018-05-23T17:33:54.598Z,13.33
2018-05-23T17:36:20.850Z,11.67
2018-05-23T17:38:47.124Z,13.23
2018-05-23T17:41:13.366Z,12.90
2018-05-23T17:43:39.624Z,13.77
2018-05-23T17:46:05.894Z,14.07
2018-05-23T17:48:32.136Z,14.07
2018-05-23T17:50:58.454Z,15.83
2018-05-23T17:53:24.686Z,15.43
2018-05-23T17:55:50.934Z,16.93
2018-05-23T17:58:17.202Z,18.23
2018-05-23T18:00:43.454Z,15.90
2018-05-23T18:03:09.692Z,15.67
2018-05-23T18:05:35.975Z,14.00
2018-05-23T18:08:02.218Z,14.83
2018-05-23T18:10:28.511Z,14.90
2018-05-23T18:12:54.768Z,15.13
2018-05-23T18:15:21.019Z,14.67
2018-05-23T18:17:47.339Z,14.30
2018-05-23T18:20:13.530Z,14.40
2018-05-23T18:22:39.807Z,14.47
2018-05-23T18:25:06.051Z,15.33
2018-05-23T18:27:32.306Z,15.13
2018-05-23T18:29:58.582Z,15.20
2018-05-23T18:32:24.818Z,15.30
2018-05-23T18:34:51.097Z,14.60
2018-05-23T18:37:17.331Z,15.37
2018-05-23T18:39:43.608Z,16.03
2018-05-23T18:42:09.841Z,16.23
2018-05-23T18:44:36.063Z,15.77
2018-05-23T18:47:02.416Z,15.90
2018-05-23T18:49:28.773Z,15.20
2018-05-23T18:51:54.978Z,15.50
2018-05-23T18:54:21.352Z,14.47
2018-05-23T18:56:47.559Z,15.43
2018-05-23T18:59:13.829Z,15.43
2018-05-23T19:01:40.104Z,13.80
2018-05-23T19:04:06.351Z,13.20
2018-05-23T19:06:32.593Z,12.43
2018-05-23T19:08:59.441Z,12.10
2018-05-23T19:11:25.961Z,10.37
2018-05-23T19:13:52.391Z,10.63
2018-05-23T19:16:18.543Z,10.73
2018-05-23T19:18:44.803Z,11.17
2018-05-23T19:21:11.110Z,10.70
2018-05-23T19:23:37.346Z,10.57
2018-05-23T19:26:03.629Z,10.33
2018-05-23T19:28:29.898Z,10.43
2018-05-23T19:30:56.207Z,10.43
2018-05-23T19:33:22.474Z,11.67
2018-05-23T19:35:48.747Z,10.60
2018-05-23T19:38:15.006Z,9.67
2018-05-23T19:40:41.238Z,10.43
2018-05-23T19:43:07.487Z,10.57
2018-05-23T19:45:33.718Z,10.70
2018-05-23T19:48:00.007Z,10.10
2018-05-23T19:50:26.290Z,11.37
2018-05-23T19:52:52.647Z,10.93
2018-05-23T19:55:18.818Z,11.00
2018-05-23T19:57:45.078Z,14.47
2018-05-23T20:00:11.335Z,13.87
2018-05-23T20:02:37.599Z,14.03
2018-05-23T20:05:03.883Z,13.93
2018-05-23T20:07:30.130Z,14.60
2018-05-23T20:09:56.406Z,14.10
2018-05-23T20:12:22.641Z,14.63
2018-05-23T20:14:48.905Z,14.47
2018-05-23T20:17:15.172Z,14.10
2018-05-23T20:19:41.408Z,14.93
2018-05-23T20:22:07.679Z,14.77
2018-05-23T20:24:33.960Z,15.07
2018-05-23T20:27:00.218Z,12.63
2018-05-23T20:29:26.469Z,13.90
2018-05-23T20:31:52.767Z,13.23
2018-05-23T20:34:19.026Z,13.03
2018-05-23T20:36:45.295Z,13.80
2018-05-23T20:39:11.527Z,13.70
2018-05-23T20:41:37.758Z,13.13
2018-05-23T20:44:04.047Z,13.27
2018-05-23T20:46:30.282Z,13.53
2018-05-23T20:48:56.570Z,13.07
2018-05-23T20:51:22.802Z,13.73
2018-05-23T20:53:49.075Z,13.90
2018-05-23T20:56:15.306Z,13.67
2018-05-23T20:58:41.584Z,12.87
2018-05-23T21:01:07.891Z,14.07
2018-05-23T21:03:34.126Z,13.87
2018-05-23T21:06:00.401Z,12.83
2018-05-23T21:08:26.626Z,12.43
2018-05-23T21:10:52.916Z,12.27
2018-05-23T21:13:19.163Z,12.63
2018-05-23T21:15:45.423Z,13.50
2018-05-23T21:18:11.652Z,13.63
2018-05-23T21:20:37.886Z,13.07
2018-05-23T21:23:04.166Z,13.37
2018-05-23T21:25:30.410Z,13.70
2018-05-23T21:27:56.684Z,13.33
2018-05-23T21:30:22.963Z,14.47
2018-05-23T21:32:49.214Z,13.83
2018-05-23T21:35:15.446Z,15.33
2018-05-23T21:37:41.729Z,15.43
2018-05-23T21:40:07.954Z,15.03
2018-05-23T21:42:34.202Z,15.50
2018-05-23T21:45:00.470Z,19.30
2018-05-23T21:47:26.695Z,14.97
2018-05-23T21:49:52.987Z,15.43
2018-05-23T21:52:19.246Z,15.17
2018-05-23T21:54:45.515Z,15.63
2018-05-23T21:57:11.751Z,15.80
2018-05-23T21:59:38.022Z,16.33
2018-05-23T22:02:04.278Z,16.43
2018-05-23T22:04:30.515Z,19.10
2018-05-23T22:06:56.767Z,19.93
2018-05-23T22:09:23.010Z,16.87
2018-05-23T22:11:49.294Z,16.70
2018-05-23T22:14:15.539Z,15.67
2018-05-23T22:16:41.826Z,16.10
2018-05-23T22:19:08.114Z,17.03
2018-05-23T22:21:34.397Z,18.10
2018-05-23T22:24:00.674Z,16.60
2018-05-23T22:26:26.927Z,17.20
2018-05-23T22:28:53.215Z,16.93
2018-05-23T22:31:19.482Z,16.20
2018-05-23T22:33:45.739Z,18.60
2018-05-23T22:36:11.995Z,17.27
2018-05-23T22:38:38.264Z,17.40
2018-05-23T22:41:04.518Z,16.53
2018-05-23T22:43:30.782Z,17.60
2018-05-23T22:45:57.030Z,17.17
2018-05-23T22:48:23.251Z,21.47
2018-05-23T22:50:49.504Z,20.63
2018-05-23T22:53:15.753Z,17.37
2018-05-23T22:55:42.029Z,16.00
2018-05-23T22:58:08.258Z,16.63
2018-05-23T23:00:34.586Z,15.53
2018-05-23T23:03:00.817Z,16.73
2018-05-23T23:05:27.285Z,17.93
2018-05-23T23:07:53.589Z,17.83
2018-05-23T23:10:19.827Z,16.60
2018-05-23T23:12:46.167Z,17.20
2018-05-23T23:15:12.440Z,19.77
2018-05-23T23:17:38.702Z,16.80
2018-05-23T23:20:04.931Z,16.47
2018-05-23T23:22:38.419Z,16.30
2018-05-23T23:25:04.803Z,16.10
2018-05-23T23:27:31.071Z,16.23
2018-05-23T23:29:57.334Z,16.50
2018-05-23T23:32:23.574Z,18.07
2018-05-23T23:34:49.871Z,18.00
2018-05-23T23:37:16.111Z,17.13
2018-05-23T23:39:42.355Z,17.13
2018-05-23T23:42:08.599Z,17.47
2018-05-23T23:44:34.959Z,16.83
2018-05-23T23:47:01.175Z,16.00
2018-05-23T23:49:27.435Z,16.67
2018-05-23T23:51:53.667Z,16.63
2018-05-23T23:54:19.898Z,16.80
2018-05-23T23:56:46.162Z,16.70
2018-05-23T23:59:12.386Z,16.33
